Time;durP1;ratioP1;P1;durP2;ratioP2;P2;SDS_P1;SDS_P2;PMS_P1;PMS_P2;Temp;Humidity;BMP_temperature;BMP_pressure;BME280_temperature;BME280_humidity;BME280_pressure;Samples;Min_cycle;Max_cycle;Signal;HPM_P1;HPM_P2
2021/05/01 00:27:34;;;;;;;6.75;2.00;;;;;;;;;;4242873;29;20199;-66
2021/05/01 00:30:00;;;;;;;5.90;1.80;;;;;;;;;;4152590;34;20134;-66
2021/05/01 00:32:25;;;;;;;3.85;1.40;;;;;;;;;;4175925;34;20114;-66
2021/05/01 00:34:51;;;;;;;12.07;2.30;;;;;;;;;;4173936;34;20133;-66
2021/05/01 00:37:17;;;;;;;6.10;1.77;;;;;;;;;;4151879;34;20134;-66
2021/05/01 00:39:43;;;;;;;9.52;1.90;;;;;;;;;;4151912;34;20130;-66
2021/05/01 00:42:09;;;;;;;10.80;1.85;;;;;;;;;;4164583;34;20231;-66
2021/05/01 00:44:35;;;;;;;10.48;2.20;;;;;;;;;;4175457;34;20310;-66
2021/05/01 00:47:00;;;;;;;6.03;1.83;;;;;;;;;;4178280;34;20094;-66
2021/05/01 00:49:26;;;;;;;5.03;1.73;;;;;;;;;;4178097;34;20137;-66
2021/05/01 00:51:52;;;;;;;8.88;2.00;;;;;;;;;;4178474;34;20110;-66
2021/05/01 00:54:18;;;;;;;5.18;1.60;;;;;;;;;;4178329;34;20125;-65
2021/05/01 00:56:44;;;;;;;10.65;2.00;;;;;;;;;;4165241;34;20149;-65
2021/05/01 00:59:10;;;;;;;22.15;2.58;;;;;;;;;;4154389;34;20181;-65
2021/05/01 01:01:37;;;;;;;13.13;2.42;;;;;;;;;;4165716;34;20190;-65
2021/05/01 01:04:03;;;;;;;15.25;2.62;;;;;;;;;;4164347;34;20197;-65
2021/05/01 01:06:29;;;;;;;15.38;2.60;;;;;;;;;;4164449;34;20511;-66
2021/05/01 01:08:56;;;;;;;12.80;2.28;;;;;;;;;;4151884;34;20223;-65
2021/05/01 01:11:22;;;;;;;2.90;1.73;;;;;;;;;;4164326;34;20103;-65
2021/05/01 01:13:50;;;;;;;4.87;1.92;;;;;;;;;;4164514;34;20125;-65
2021/05/01 01:16:16;;;;;;;2.50;1.65;;;;;;;;;;4164309;34;20219;-66
2021/05/01 01:18:42;;;;;;;3.25;1.50;;;;;;;;;;4164471;34;20550;-66
2021/05/01 01:21:08;;;;;;;2.45;1.80;;;;;;;;;;4151433;34;20122;-66
2021/05/01 01:23:33;;;;;;;2.37;1.80;;;;;;;;;;4164224;34;20483;-66
2021/05/01 01:25:59;;;;;;;2.50;1.50;;;;;;;;;;4151316;34;20581;-66
2021/05/01 01:28:26;;;;;;;2.70;1.75;;;;;;;;;;4164103;34;20099;-66
2021/05/01 01:30:52;;;;;;;3.05;1.85;;;;;;;;;;4151529;34;20622;-66
2021/05/01 01:33:18;;;;;;;2.28;1.75;;;;;;;;;;4164512;34;20134;-66
2021/05/01 01:35:44;;;;;;;2.15;1.33;;;;;;;;;;4164299;34;20150;-66
2021/05/01 01:38:10;;;;;;;5.18;1.77;;;;;;;;;;4164038;34;20127;-66
2021/05/01 01:40:37;;;;;;;4.05;1.70;;;;;;;;;;4163981;34;20110;-66
2021/05/01 01:43:04;;;;;;;5.45;1.90;;;;;;;;;;4164152;34;20122;-66
2021/05/01 01:45:30;;;;;;;6.60;2.00;;;;;;;;;;4163956;34;20098;-66
2021/05/01 01:47:57;;;;;;;3.12;1.87;;;;;;;;;;4164084;34;20202;-66
2021/05/01 01:50:22;;;;;;;3.08;2.05;;;;;;;;;;4140243;34;20515;-66
2021/05/01 01:52:48;;;;;;;5.28;1.60;;;;;;;;;;4151544;34;20206;-66
2021/05/01 01:55:16;;;;;;;2.00;1.80;;;;;;;;;;4164044;34;20576;-66
2021/05/01 01:57:42;;;;;;;4.90;2.00;;;;;;;;;;4163860;34;20170;-66
2021/05/01 02:00:19;;;;;;;2.70;1.67;;;;;;;;;;4151512;34;20138;-66
2021/05/01 02:02:45;;;;;;;2.97;1.50;;;;;;;;;;4173318;34;20456;-66
2021/05/01 02:05:12;;;;;;;4.65;1.70;;;;;;;;;;4177492;34;20236;-66
2021/05/01 02:07:38;;;;;;;1.50;1.40;;;;;;;;;;4177638;34;20095;-65
2021/05/01 02:10:05;;;;;;;2.10;1.85;;;;;;;;;;4179289;34;20102;-65
2021/05/01 02:12:33;;;;;;;4.15;1.67;;;;;;;;;;4183448;34;20106;-66
2021/05/01 02:14:59;;;;;;;2.00;1.77;;;;;;;;;;4172839;34;20110;-65
2021/05/01 02:17:24;;;;;;;2.15;1.70;;;;;;;;;;4177569;34;20503;-65
2021/05/01 02:19:50;;;;;;;2.55;1.90;;;;;;;;;;4177405;34;20478;-65
2021/05/01 02:22:16;;;;;;;2.20;1.80;;;;;;;;;;4177125;34;20110;-66
2021/05/01 02:24:43;;;;;;;2.42;1.67;;;;;;;;;;4177314;34;20538;-66
2021/05/01 02:27:09;;;;;;;3.03;1.80;;;;;;;;;;4164606;34;20297;-66
2021/05/01 02:29:35;;;;;;;2.72;2.00;;;;;;;;;;4151269;34;20205;-66
2021/05/01 02:32:01;;;;;;;4.07;1.60;;;;;;;;;;4150546;34;20095;-66
2021/05/01 02:34:27;;;;;;;5.47;1.77;;;;;;;;;;4150130;34;20134;-66
2021/05/01 02:36:53;;;;;;;1.67;1.55;;;;;;;;;;4150189;34;20147;-67
2021/05/01 02:39:19;;;;;;;2.08;1.62;;;;;;;;;;4148825;34;20146;-67
2021/05/01 02:41:45;;;;;;;3.92;2.15;;;;;;;;;;4150068;34;20118;-66
2021/05/01 02:44:11;;;;;;;4.78;2.10;;;;;;;;;;4148940;34;20207;-66
2021/05/01 02:46:36;;;;;;;3.65;1.90;;;;;;;;;;4149818;34;20553;-66
2021/05/01 02:49:03;;;;;;;3.85;1.67;;;;;;;;;;4150013;34;20143;-66
2021/05/01 02:51:28;;;;;;;3.90;2.60;;;;;;;;;;4149879;34;20107;-66
2021/05/01 02:53:54;;;;;;;2.50;1.90;;;;;;;;;;4148595;34;20244;-66
2021/05/01 02:56:20;;;;;;;2.75;2.20;;;;;;;;;;4149626;34;20119;-66
2021/05/01 02:58:46;;;;;;;3.10;1.87;;;;;;;;;;4150077;34;20123;-66
2021/05/01 03:01:12;;;;;;;22.80;3.78;;;;;;;;;;4149667;34;20216;-66
2021/05/01 03:03:39;;;;;;;5.22;2.60;;;;;;;;;;4148402;34;20127;-66
2021/05/01 03:06:05;;;;;;;5.68;2.65;;;;;;;;;;4149680;34;20144;-66
2021/05/01 03:08:31;;;;;;;7.30;2.30;;;;;;;;;;4149679;34;20115;-66
2021/05/01 03:10:56;;;;;;;7.30;2.30;;;;;;;;;;4149628;34;20138;-66
2021/05/01 03:13:22;;;;;;;5.05;2.40;;;;;;;;;;4149706;34;20138;-67
2021/05/01 03:15:49;;;;;;;4.10;2.30;;;;;;;;;;4149683;34;20215;-67
2021/05/01 03:18:15;;;;;;;3.22;2.40;;;;;;;;;;4149572;34;20150;-67
2021/05/01 03:20:41;;;;;;;4.78;2.33;;;;;;;;;;4149508;34;20115;-67
2021/05/01 03:23:08;;;;;;;2.60;2.20;;;;;;;;;;4149767;34;20553;-67
2021/05/01 03:25:34;;;;;;;4.70;1.98;;;;;;;;;;4138051;34;20104;-67
2021/05/01 03:28:00;;;;;;;4.55;1.80;;;;;;;;;;4148609;34;20220;-67
2021/05/01 03:30:26;;;;;;;2.42;1.80;;;;;;;;;;4151512;34;20129;-67
2021/05/01 03:32:52;;;;;;;3.20;1.90;;;;;;;;;;4138999;34;20145;-67
2021/05/01 03:35:18;;;;;;;1.90;1.70;;;;;;;;;;4139009;34;20123;-67
2021/05/01 03:37:43;;;;;;;2.80;2.45;;;;;;;;;;4151482;34;20111;-67
2021/05/01 03:40:10;;;;;;;2.80;1.62;;;;;;;;;;4151517;34;20424;-67
2021/05/01 03:42:36;;;;;;;3.28;1.75;;;;;;;;;;4138867;34;20181;-67
2021/05/01 03:45:03;;;;;;;3.12;1.95;;;;;;;;;;4151466;34;20141;-67
2021/05/01 03:47:29;;;;;;;2.20;2.00;;;;;;;;;;4151566;34;20122;-67
2021/05/01 03:49:55;;;;;;;2.25;2.05;;;;;;;;;;4152279;34;20130;-67
2021/05/01 03:52:21;;;;;;;1.50;1.40;;;;;;;;;;4151361;34;20552;-67
2021/05/01 03:54:47;;;;;;;2.47;1.90;;;;;;;;;;4151356;34;20111;-67
2021/05/01 03:57:13;;;;;;;4.05;1.80;;;;;;;;;;4138934;34;20119;-66
2021/05/01 03:59:39;;;;;;;4.70;1.90;;;;;;;;;;4151305;34;20130;-67
2021/05/01 04:02:05;;;;;;;1.98;1.52;;;;;;;;;;4151469;34;20327;-66
2021/05/01 04:04:32;;;;;;;3.75;2.30;;;;;;;;;;4151301;34;20545;-66
2021/05/01 04:06:58;;;;;;;4.32;2.35;;;;;;;;;;4151317;34;20131;-66
2021/05/01 04:09:24;;;;;;;1.75;1.60;;;;;;;;;;4151218;34;20543;-67
2021/05/01 04:11:50;;;;;;;2.92;1.87;;;;;;;;;;4151173;34;20536;-67
2021/05/01 04:14:16;;;;;;;6.40;2.15;;;;;;;;;;4151323;34;20583;-67
2021/05/01 04:16:42;;;;;;;4.35;1.90;;;;;;;;;;4151634;34;20211;-67
2021/05/01 04:19:08;;;;;;;4.50;1.87;;;;;;;;;;4151337;34;20127;-67
2021/05/01 04:21:33;;;;;;;4.10;1.70;;;;;;;;;;4151089;34;20117;-67
2021/05/01 04:23:59;;;;;;;4.85;1.90;;;;;;;;;;4163879;34;20099;-68
2021/05/01 04:26:26;;;;;;;1.73;1.62;;;;;;;;;;4177420;34;20110;-68
2021/05/01 04:28:52;;;;;;;1.98;1.83;;;;;;;;;;4159780;34;20507;-68
2021/05/01 04:31:19;;;;;;;4.68;1.92;;;;;;;;;;4150176;34;20447;-67
2021/05/01 04:33:45;;;;;;;5.07;2.00;;;;;;;;;;4150345;34;20207;-67
2021/05/01 04:36:11;;;;;;;7.03;1.90;;;;;;;;;;4149770;34;20147;-67
2021/05/01 04:38:37;;;;;;;6.62;2.00;;;;;;;;;;4150259;34;20570;-67
2021/05/01 04:41:02;;;;;;;4.05;1.80;;;;;;;;;;4150854;34;20118;-66
2021/05/01 04:43:28;;;;;;;3.10;1.90;;;;;;;;;;4150997;34;20131;-67
2021/05/01 04:45:54;;;;;;;4.43;2.03;;;;;;;;;;4151009;34;20117;-68
2021/05/01 04:48:21;;;;;;;2.83;2.10;;;;;;;;;;4151152;34;20123;-66
2021/05/01 04:50:50;;;;;;;4.90;1.95;;;;;;;;;;4151086;34;20122;-67
2021/05/01 04:53:16;;;;;;;3.62;2.17;;;;;;;;;;4137595;34;20441;-66
2021/05/01 04:55:42;;;;;;;4.15;1.70;;;;;;;;;;4150710;34;20133;-67
2021/05/01 04:58:08;;;;;;;2.75;2.03;;;;;;;;;;4150843;34;20127;-67
2021/05/01 05:00:34;;;;;;;7.93;1.77;;;;;;;;;;4150726;34;20442;-67
2021/05/01 05:03:00;;;;;;;3.37;1.55;;;;;;;;;;4151093;34;20468;-68
2021/05/01 05:05:26;;;;;;;2.78;1.60;;;;;;;;;;4138218;34;20220;-67
2021/05/01 05:07:52;;;;;;;7.18;1.98;;;;;;;;;;4138256;34;20123;-68
2021/05/01 05:10:18;;;;;;;2.92;1.70;;;;;;;;;;4150758;34;20155;-68
2021/05/01 05:12:44;;;;;;;5.05;1.98;;;;;;;;;;4149499;34;20591;-68
2021/05/01 05:15:10;;;;;;;3.85;1.58;;;;;;;;;;4141336;34;20118;-67
2021/05/01 05:17:36;;;;;;;4.47;1.87;;;;;;;;;;4153770;34;20114;-68
2021/05/01 05:20:03;;;;;;;3.87;1.90;;;;;;;;;;4152007;34;20122;-68
2021/05/01 05:22:29;;;;;;;2.47;1.80;;;;;;;;;;4150818;34;20098;-68
2021/05/01 05:24:55;;;;;;;4.07;1.52;;;;;;;;;;4150974;34;20150;-68
2021/05/01 05:27:21;;;;;;;5.72;2.03;;;;;;;;;;4148787;34;20533;-68
2021/05/01 05:29:51;;;;;;;4.03;1.52;;;;;;;;;;4150596;34;20142;-68
2021/05/01 05:32:17;;;;;;;2.72;1.83;;;;;;;;;;4138367;34;20155;-68
2021/05/01 05:34:44;;;;;;;4.37;2.00;;;;;;;;;;4150576;34;20186;-68
2021/05/01 05:37:09;;;;;;;4.07;1.80;;;;;;;;;;4150806;34;20107;-68
2021/05/01 05:39:35;;;;;;;6.97;2.20;;;;;;;;;;4150809;34;20220;-68
2021/05/01 05:42:01;;;;;;;3.65;1.98;;;;;;;;;;4150421;34;20568;-69
2021/05/01 05:44:28;;;;;;;2.83;1.62;;;;;;;;;;4150502;34;20530;-69
2021/05/01 05:46:54;;;;;;;6.10;2.30;;;;;;;;;;4150665;34;20119;-69
2021/05/01 05:49:20;;;;;;;5.32;2.28;;;;;;;;;;4150458;34;20129;-69
2021/05/01 05:51:47;;;;;;;10.43;5.53;;;;;;;;;;4150541;34;20557;-69
2021/05/01 05:54:13;;;;;;;8.95;3.92;;;;;;;;;;4150707;34;20107;-68
2021/05/01 05:56:39;;;;;;;10.88;4.50;;;;;;;;;;4150281;34;20568;-68
2021/05/01 05:59:04;;;;;;;6.47;3.72;;;;;;;;;;4150506;34;20123;-68
2021/05/01 06:01:31;;;;;;;4.40;3.20;;;;;;;;;;4137560;34;20126;-68
2021/05/01 06:03:58;;;;;;;6.78;2.90;;;;;;;;;;4151171;34;20107;-67
2021/05/01 06:06:31;;;;;;;8.75;3.33;;;;;;;;;;4138163;34;20558;-68
2021/05/01 06:08:56;;;;;;;8.25;3.12;;;;;;;;;;4138310;34;20588;-68
2021/05/01 06:11:22;;;;;;;2.90;2.58;;;;;;;;;;4137834;34;20207;-66
2021/05/01 06:13:48;;;;;;;6.43;2.70;;;;;;;;;;4150989;34;20153;-67
2021/05/01 06:16:14;;;;;;;4.00;2.60;;;;;;;;;;4138004;34;20106;-67
2021/05/01 06:18:41;;;;;;;3.72;2.45;;;;;;;;;;4137650;34;20235;-67
2021/05/01 06:21:10;;;;;;;4.78;2.72;;;;;;;;;;4150096;34;20595;-67
2021/05/01 06:23:40;;;;;;;3.78;2.00;;;;;;;;;;4137481;34;20200;-67
2021/05/01 06:26:06;;;;;;;2.60;1.80;;;;;;;;;;4150174;34;20159;-67
2021/05/01 06:28:35;;;;;;;5.28;2.55;;;;;;;;;;4150183;34;20107;-67
2021/05/01 06:31:05;;;;;;;8.50;3.92;;;;;;;;;;4149971;34;20112;-68
2021/05/01 06:33:31;;;;;;;5.60;3.75;;;;;;;;;;4152521;34;20126;-67
2021/05/01 06:35:58;;;;;;;2.92;2.45;;;;;;;;;;4155769;34;20475;-67
2021/05/01 06:38:29;;;;;;;4.95;2.37;;;;;;;;;;4143579;34;20100;-68
2021/05/01 06:40:58;;;;;;;2.90;2.00;;;;;;;;;;4149846;34;20116;-68
2021/05/01 06:43:30;;;;;;;5.47;2.47;;;;;;;;;;4137673;34;20192;-68
2021/05/01 06:45:56;;;;;;;5.75;2.20;;;;;;;;;;4149724;34;20110;-68
2021/05/01 06:48:25;;;;;;;4.80;1.98;;;;;;;;;;4137485;34;20147;-68
2021/05/01 06:50:51;;;;;;;3.85;2.17;;;;;;;;;;4149740;34;20103;-68
2021/05/01 06:53:25;;;;;;;4.25;2.00;;;;;;;;;;4149776;34;20123;-68
2021/05/01 06:55:51;;;;;;;2.67;2.42;;;;;;;;;;4138022;34;20110;-68
2021/05/01 06:58:17;;;;;;;7.43;3.47;;;;;;;;;;4149979;34;20134;-68
2021/05/01 07:00:43;;;;;;;6.60;2.70;;;;;;;;;;4138432;34;20115;-68
2021/05/01 07:03:09;;;;;;;2.90;2.50;;;;;;;;;;4139320;34;20139;-68
2021/05/01 07:05:35;;;;;;;3.67;2.28;;;;;;;;;;4139243;34;20459;-68
2021/05/01 07:08:01;;;;;;;4.87;2.30;;;;;;;;;;4151865;34;20119;-68
2021/05/01 07:10:27;;;;;;;3.33;2.03;;;;;;;;;;4139433;34;20111;-67
2021/05/01 07:12:53;;;;;;;2.53;2.00;;;;;;;;;;4151837;34;20174;-67
2021/05/01 07:15:19;;;;;;;2.83;2.30;;;;;;;;;;4139476;34;20213;-67
2021/05/01 07:17:46;;;;;;;3.33;2.28;;;;;;;;;;4151908;34;20159;-67
2021/05/01 07:20:13;;;;;;;3.47;2.05;;;;;;;;;;4139506;34;20214;-67
2021/05/01 07:22:39;;;;;;;2.53;2.20;;;;;;;;;;4151489;34;20214;-68
2021/05/01 07:25:07;;;;;;;3.67;2.80;;;;;;;;;;4139589;34;20127;-67
2021/05/01 07:27:40;;;;;;;2.92;2.33;;;;;;;;;;4139296;34;20168;-67
2021/05/01 07:30:06;;;;;;;2.60;2.40;;;;;;;;;;4139682;34;20629;-67
2021/05/01 07:32:34;;;;;;;4.43;2.40;;;;;;;;;;4158323;34;20123;-67
2021/05/01 07:35:04;;;;;;;3.12;2.28;;;;;;;;;;4160586;34;20131;-68
2021/05/01 07:37:30;;;;;;;5.43;3.72;;;;;;;;;;4160136;34;20441;-68
2021/05/01 07:39:56;;;;;;;2.50;2.20;;;;;;;;;;4147356;34;20230;-68
2021/05/01 07:42:22;;;;;;;2.97;2.28;;;;;;;;;;4152723;34;20115;-68
2021/05/01 07:44:48;;;;;;;2.92;2.33;;;;;;;;;;4139322;34;20546;-68
2021/05/01 07:47:15;;;;;;;3.97;2.70;;;;;;;;;;4139070;34;20103;-68
2021/05/01 07:49:41;;;;;;;5.15;2.97;;;;;;;;;;4151563;34;20127;-68
2021/05/01 07:52:07;;;;;;;3.85;3.15;;;;;;;;;;4139440;34;20131;-68
2021/05/01 07:54:39;;;;;;;5.75;3.00;;;;;;;;;;4151601;34;20210;-68
2021/05/01 07:57:05;;;;;;;3.78;2.45;;;;;;;;;;4151610;34;20536;-68
2021/05/01 07:59:31;;;;;;;3.67;2.53;;;;;;;;;;4151773;34;20135;-68
2021/05/01 08:01:57;;;;;;;5.30;2.85;;;;;;;;;;4151952;34;20268;-68
2021/05/01 08:04:23;;;;;;;5.10;2.80;;;;;;;;;;4151825;34;20134;-68
2021/05/01 08:06:48;;;;;;;3.10;2.37;;;;;;;;;;4139200;34;20183;-68
2021/05/01 08:09:14;;;;;;;6.97;3.00;;;;;;;;;;4138994;34;20131;-68
2021/05/01 08:11:40;;;;;;;6.40;4.90;;;;;;;;;;4150559;34;20124;-68
2021/05/01 08:14:06;;;;;;;3.97;2.55;;;;;;;;;;4151363;34;20141;-68
2021/05/01 08:16:32;;;;;;;3.55;2.78;;;;;;;;;;4151247;34;20126;-68
2021/05/01 08:19:00;;;;;;;2.78;2.37;;;;;;;;;;4138849;34;20194;-68
2021/05/01 08:21:28;;;;;;;3.75;2.75;;;;;;;;;;4151249;34;20437;-68
2021/05/01 08:23:54;;;;;;;6.65;3.40;;;;;;;;;;4151302;34;20264;-68
2021/05/01 08:26:20;;;;;;;7.50;4.70;;;;;;;;;;4151249;34;20115;-68
2021/05/01 08:28:46;;;;;;;4.50;3.83;;;;;;;;;;4138627;34;20206;-68
2021/05/01 08:31:12;;;;;;;7.47;3.47;;;;;;;;;;4138827;34;20127;-68
2021/05/01 08:33:38;;;;;;;4.65;3.22;;;;;;;;;;4151193;34;20146;-68
2021/05/01 08:36:04;;;;;;;6.30;3.33;;;;;;;;;;4151129;34;20135;-68
2021/05/01 08:38:36;;;;;;;5.72;4.00;;;;;;;;;;4138837;34;20142;-68
2021/05/01 08:41:03;;;;;;;5.50;2.92;;;;;;;;;;4151068;34;20227;-68
2021/05/01 08:43:30;;;;;;;2.72;2.47;;;;;;;;;;4138890;34;20103;-68
2021/05/01 08:45:57;;;;;;;2.87;1.75;;;;;;;;;;4151157;34;20523;-68
2021/05/01 08:48:24;;;;;;;4.32;2.50;;;;;;;;;;4151011;34;20191;-68
2021/05/01 08:51:01;;;;;;;4.28;2.40;;;;;;;;;;4150987;34;20095;-68
2021/05/01 08:53:28;;;;;;;4.28;2.70;;;;;;;;;;4150946;34;20550;-68
2021/05/01 08:55:53;;;;;;;3.83;2.75;;;;;;;;;;4150930;34;20547;-68
2021/05/01 08:58:19;;;;;;;6.43;2.83;;;;;;;;;;4150979;34;20131;-68
2021/05/01 09:00:47;;;;;;;6.60;3.20;;;;;;;;;;4150809;34;20115;-68
2021/05/01 09:03:13;;;;;;;6.40;3.30;;;;;;;;;;4151005;34;20106;-68
2021/05/01 09:05:39;;;;;;;6.35;4.12;;;;;;;;;;4138516;34;20195;-68
2021/05/01 09:08:07;;;;;;;10.40;4.68;;;;;;;;;;4138380;34;20354;-68
2021/05/01 09:10:40;;;;;;;7.80;5.18;;;;;;;;;;4138331;34;20192;-68
2021/05/01 09:13:14;;;;;;;8.73;4.97;;;;;;;;;;4138378;34;20287;-68
2021/05/01 09:15:42;;;;;;;8.30;5.53;;;;;;;;;;4138198;34;20107;-68
2021/05/01 09:18:08;;;;;;;8.43;4.15;;;;;;;;;;4138386;34;20186;-68
2021/05/01 09:20:33;;;;;;;4.53;2.67;;;;;;;;;;4150842;34;20103;-68
2021/05/01 09:22:59;;;;;;;8.32;2.60;;;;;;;;;;4150225;34;20109;-68
2021/05/01 09:25:31;;;;;;;3.00;2.17;;;;;;;;;;4150542;34;20103;-68
2021/05/01 09:28:07;;;;;;;5.68;4.37;;;;;;;;;;4150517;34;20219;-69
2021/05/01 09:30:37;;;;;;;5.45;3.55;;;;;;;;;;4138332;34;20650;-68
2021/05/01 09:33:24;;;;;;;7.25;4.62;;;;;;;;;;4150825;34;20445;-68
2021/05/01 09:35:53;;;;;;;8.52;4.00;;;;;;;;;;4150596;34;20170;-68
2021/05/01 09:38:19;;;;;;;7.37;4.78;;;;;;;;;;4138284;34;20531;-68
2021/05/01 09:40:46;;;;;;;7.07;3.45;;;;;;;;;;4150521;34;20107;-69
2021/05/01 09:43:12;;;;;;;6.03;3.50;;;;;;;;;;4150477;34;20111;-68
2021/05/01 09:45:38;;;;;;;4.55;3.25;;;;;;;;;;4150433;34;20198;-68
2021/05/01 09:48:12;;;;;;;5.87;3.72;;;;;;;;;;4150555;34;20204;-68
2021/05/01 09:50:38;;;;;;;5.62;4.07;;;;;;;;;;4150523;34;20123;-68
2021/05/01 09:53:10;;;;;;;7.80;4.22;;;;;;;;;;4137922;34;20129;-68
2021/05/01 09:55:51;;;;;;;4.75;3.55;;;;;;;;;;4137869;34;20131;-68
2021/05/01 09:58:37;;;;;;;4.47;3.15;;;;;;;;;;4151619;34;20127;-68
2021/05/01 10:01:15;;;;;;;5.82;3.87;;;;;;;;;;4149986;34;20141;-68
2021/05/01 10:03:41;;;;;;;7.40;3.70;;;;;;;;;;4138952;34;20131;-68
2021/05/01 10:06:08;;;;;;;4.60;3.20;;;;;;;;;;4138453;34;20121;-68
2021/05/01 10:08:35;;;;;;;9.25;5.60;;;;;;;;;;4138552;34;20118;-68
2021/05/01 10:11:12;;;;;;;7.43;4.78;;;;;;;;;;4150469;34;20099;-68
2021/05/01 10:13:48;;;;;;;7.07;4.82;;;;;;;;;;4138431;34;20158;-69
2021/05/01 10:16:14;;;;;;;8.82;5.35;;;;;;;;;;4151112;34;20291;-68
2021/05/01 10:19:02;;;;;;;6.57;5.00;;;;;;;;;;4150643;34;20123;-68
2021/05/01 10:21:27;;;;;;;8.73;5.87;;;;;;;;;;4139592;34;20216;-68
2021/05/01 10:23:55;;;;;;;10.82;5.68;;;;;;;;;;4137840;34;20520;-69
2021/05/01 10:26:21;;;;;;;9.15;5.55;;;;;;;;;;4150204;34;20103;-68
2021/05/01 10:28:52;;;;;;;6.70;4.20;;;;;;;;;;4138247;34;20433;-68
2021/05/01 10:31:21;;;;;;;7.18;3.87;;;;;;;;;;4149985;34;20135;-68
2021/05/01 10:33:47;;;;;;;5.93;3.97;;;;;;;;;;4149906;34;20115;-68
2021/05/01 10:36:21;;;;;;;8.52;4.55;;;;;;;;;;4137195;34;20129;-68
2021/05/01 10:38:57;;;;;;;8.07;4.70;;;;;;;;;;4150371;34;20219;-67
2021/05/01 10:41:24;;;;;;;;;;;;;;;;;;4150334;34;20127;-68
2021/05/01 10:43:55;;;;;;;9.23;5.65;;;;;;;;;;4150175;34;20001;-68
2021/05/01 10:46:22;;;;;;;7.53;4.28;;;;;;;;;;4137685;34;20133;-68
2021/05/01 10:48:52;;;;;;;6.68;3.15;;;;;;;;;;4148655;34;20119;-68
2021/05/01 10:51:22;;;;;;;6.45;3.90;;;;;;;;;;4149972;34;20111;-68
2021/05/01 10:54:05;;;;;;;4.47;3.37;;;;;;;;;;4149942;34;20554;-68
2021/05/01 10:56:31;;;;;;;6.40;2.95;;;;;;;;;;4137738;34;20114;-68
2021/05/01 10:58:57;;;;;;;8.70;3.00;;;;;;;;;;4149788;34;20157;-68
2021/05/01 11:01:34;;;;;;;4.68;2.62;;;;;;;;;;4137312;34;20111;-68
2021/05/01 11:04:01;;;;;;;6.68;2.78;;;;;;;;;;4149898;34;20587;-68
2021/05/01 11:06:28;;;;;;;3.60;2.55;;;;;;;;;;4149790;34;20475;-69
2021/05/01 11:09:04;;;;;;;4.72;2.75;;;;;;;;;;4150116;34;20114;-69
2021/05/01 11:11:37;;;;;;;6.65;2.90;;;;;;;;;;4149743;34;20131;-68
2021/05/01 11:14:27;;;;;;;4.45;2.67;;;;;;;;;;4149671;34;20552;-68
2021/05/01 11:17:03;;;;;;;4.62;2.78;;;;;;;;;;4149717;34;20118;-68
2021/05/01 11:19:29;;;;;;;;;;;;;;;;;;4137769;34;20542;-68
2021/05/01 11:21:54;;;;;;;;;;;;;;;;;;4137212;34;20055;-68
2021/05/01 11:24:20;;;;;;;3.95;2.33;;;;;;;;;;4137156;34;20089;-68
2021/05/01 11:26:47;;;;;;;6.87;3.08;;;;;;;;;;4149341;34;20123;-68
2021/05/01 11:29:14;;;;;;;5.00;3.33;;;;;;;;;;4149775;34;20091;-68
2021/05/01 11:31:41;;;;;;;3.95;2.35;;;;;;;;;;4149599;34;20518;-68
2021/05/01 11:34:09;;;;;;;6.75;3.87;;;;;;;;;;4149764;34;20101;-68
2021/05/01 11:36:57;;;;;;;8.20;4.85;;;;;;;;;;4137202;34;20129;-68
2021/05/01 11:39:23;;;;;;;4.37;3.40;;;;;;;;;;4149366;34;20203;-69
2021/05/01 11:41:49;;;;;;;10.13;4.60;;;;;;;;;;4136710;34;20532;-68
2021/05/01 11:44:16;;;;;;;9.30;4.80;;;;;;;;;;4137103;34;20139;-67
2021/05/01 11:46:59;;;;;;;7.05;3.45;;;;;;;;;;4151067;34;20123;-67
2021/05/01 11:49:26;;;;;;;5.62;3.40;;;;;;;;;;4151986;34;20135;-67
2021/05/01 11:52:01;;;;;;;6.00;3.08;;;;;;;;;;4151891;34;20106;-67
2021/05/01 11:54:49;;;;;;;6.05;4.25;;;;;;;;;;4151628;34;20138;-67
2021/05/01 11:57:18;;;;;;;12.45;3.00;;;;;;;;;;4151387;34;20539;-67
2021/05/01 11:59:44;;;;;;;10.20;3.05;;;;;;;;;;4151632;34;20820;-67
2021/05/01 12:02:11;;;;;;;9.68;4.40;;;;;;;;;;4151674;34;20150;-68
2021/05/01 12:04:47;;;;;;;10.95;4.40;;;;;;;;;;4150274;34;20102;-67
2021/05/01 12:07:15;;;;;;;;;;;;;;;;;;4139375;34;20119;-68
2021/05/01 12:09:42;;;;;;;9.55;3.08;;;;;;;;;;4151634;34;19986;-67
2021/05/01 12:12:09;;;;;;;2.35;2.08;;;;;;;;;;4139312;34;20128;-68
2021/05/01 12:14:35;;;;;;;16.55;6.43;;;;;;;;;;4139316;34;20468;-68
2021/05/01 12:17:11;;;;;;;10.73;7.12;;;;;;;;;;4138964;34;20151;-68
2021/05/01 12:19:45;;;;;;;11.23;6.37;;;;;;;;;;4151373;34;20119;-68
2021/05/01 12:22:24;;;;;;;6.93;4.32;;;;;;;;;;4151247;34;20199;-66
2021/05/01 12:24:50;;;;;;;7.53;5.78;;;;;;;;;;4151523;34;20115;-67
2021/05/01 12:27:49;;;;;;;6.90;4.45;;;;;;;;;;4151363;34;20123;-67
2021/05/01 12:30:38;;;;;;;9.57;5.70;;;;;;;;;;4151128;34;20134;-68
2021/05/01 12:33:32;;;;;;;5.57;4.12;;;;;;;;;;4151462;34;20126;-67
2021/05/01 12:36:02;;;;;;;7.35;3.62;;;;;;;;;;4151438;34;20198;-66
2021/05/01 12:38:29;;;;;;;8.57;3.42;;;;;;;;;;4138854;34;20150;-67
2021/05/01 12:41:10;;;;;;;5.15;3.05;;;;;;;;;;4151202;34;20127;-67
2021/05/01 12:43:42;;;;;;;7.10;5.97;;;;;;;;;;4151277;34;20219;-66
2021/05/01 12:46:17;;;;;;;13.55;5.78;;;;;;;;;;4151145;34;20115;-66
2021/05/01 12:48:53;;;;;;;6.50;5.50;;;;;;;;;;4151214;34;20100;-67
2021/05/01 12:51:32;;;;;;;4.60;2.87;;;;;;;;;;4151001;34;20119;-66
2021/05/01 12:54:19;;;;;;;7.93;3.58;;;;;;;;;;4151217;34;20107;-66
2021/05/01 12:56:52;;;;;;;4.15;3.22;;;;;;;;;;4145455;34;20113;-66
2021/05/01 13:02:04;;;;;;;6.20;3.80;;;;;;;;;;4150640;34;20300;-67
2021/05/01 13:04:35;;;;;;;9.90;3.83;;;;;;;;;;4146065;34;20115;-67
2021/05/01 13:07:03;;;;;;;8.10;4.57;;;;;;;;;;4151145;34;20103;-67
2021/05/01 13:09:50;;;;;;;9.02;4.45;;;;;;;;;;4150793;34;20546;-67
2021/05/01 13:12:25;;;;;;;8.57;5.50;;;;;;;;;;4139755;34;20542;-67
2021/05/01 13:14:51;;;;;;;10.45;5.30;;;;;;;;;;4139613;34;20207;-67
2021/05/01 13:17:24;;;;;;;9.25;6.25;;;;;;;;;;4150938;34;20193;-68
2021/05/01 13:19:49;;;;;;;11.10;5.93;;;;;;;;;;4138961;34;20091;-67
2021/05/01 13:22:20;;;;;;;7.35;5.00;;;;;;;;;;4150685;34;20121;-67
2021/05/01 13:24:47;;;;;;;9.20;5.00;;;;;;;;;;4150717;34;20099;-68
2021/05/01 13:27:13;;;;;;;9.95;4.97;;;;;;;;;;4149181;34;20138;-67
2021/05/01 13:29:43;;;;;;;12.52;4.80;;;;;;;;;;4164117;34;20118;-68
2021/05/01 13:32:14;;;;;;;4.15;2.87;;;;;;;;;;4164116;34;20135;-67
2021/05/01 13:34:42;;;;;;;6.20;2.83;;;;;;;;;;4164382;34;20678;-67
2021/05/01 13:37:08;;;;;;;6.70;4.07;;;;;;;;;;4151879;34;20130;-67
2021/05/01 13:39:35;;;;;;;9.82;5.87;;;;;;;;;;4164144;34;20545;-68
2021/05/01 13:42:14;;;;;;;7.40;4.80;;;;;;;;;;4164090;34;20223;-67
2021/05/01 13:44:44;;;;;;;15.60;7.72;;;;;;;;;;4164025;34;20130;-67
2021/05/01 13:47:23;;;;;;;11.63;7.93;;;;;;;;;;4163974;34;20153;-68
2021/05/01 13:49:59;;;;;;;11.38;6.97;;;;;;;;;;4164109;34;20103;-67
2021/05/01 13:52:26;;;;;;;11.73;7.78;;;;;;;;;;4164074;34;20091;-67
2021/05/01 13:54:53;;;;;;;16.48;10.93;;;;;;;;;;4164274;34;20111;-67
2021/05/01 13:57:27;;;;;;;16.20;9.52;;;;;;;;;;4164153;34;20099;-67
2021/05/01 14:00:02;;;;;;;10.27;6.35;;;;;;;;;;4151509;34;20106;-68
2021/05/01 14:02:38;;;;;;;10.43;6.37;;;;;;;;;;4162532;34;20131;-67
2021/05/01 14:05:05;;;;;;;8.13;5.82;;;;;;;;;;4164096;34;20113;-67
2021/05/01 14:07:32;;;;;;;11.55;7.37;;;;;;;;;;4163734;34;20129;-67
2021/05/01 14:09:58;;;;;;;11.12;5.53;;;;;;;;;;4150431;34;20193;-67
2021/05/01 14:12:30;;;;;;;11.60;6.87;;;;;;;;;;4163691;34;20223;-67
2021/05/01 14:14:57;;;;;;;11.00;8.10;;;;;;;;;;4163827;34;20543;-67
2021/05/01 14:17:29;;;;;;;13.05;7.75;;;;;;;;;;4163701;34;20120;-67
2021/05/01 14:19:56;;;;;;;11.30;7.07;;;;;;;;;;4163808;34;20130;-67
2021/05/01 14:22:22;;;;;;;15.68;9.25;;;;;;;;;;4151165;34;20182;-67
2021/05/01 14:24:48;;;;;;;12.52;7.05;;;;;;;;;;4163798;34;20671;-67
2021/05/01 14:27:14;;;;;;;10.48;6.12;;;;;;;;;;4150796;34;20539;-67
2021/05/01 14:29:53;;;;;;;13.18;8.10;;;;;;;;;;4151059;34;20097;-68
2021/05/01 14:32:19;;;;;;;5.62;3.20;;;;;;;;;;4163558;34;20129;-67
2021/05/01 14:34:53;;;;;;;4.50;3.47;;;;;;;;;;4163751;34;20123;-67
2021/05/01 14:37:19;;;;;;;3.72;2.60;;;;;;;;;;4163660;34;20451;-67
2021/05/01 14:39:46;;;;;;;5.28;3.30;;;;;;;;;;4150941;34;20133;-67
2021/05/01 14:42:13;;;;;;;6.20;3.87;;;;;;;;;;4163568;34;20106;-67
2021/05/01 14:44:38;;;;;;;11.73;7.55;;;;;;;;;;4163514;34;20099;-68
2021/05/01 14:47:08;;;;;;;27.25;15.00;;;;;;;;;;4163495;34;20538;-68
2021/05/01 14:49:37;;;;;;;10.13;5.62;;;;;;;;;;4163435;34;20110;-67
2021/05/01 14:52:07;;;;;;;5.50;3.60;;;;;;;;;;4163429;34;20094;-67
2021/05/01 14:54:33;;;;;;;5.80;4.00;;;;;;;;;;4163387;34;20091;-67
2021/05/01 14:57:02;;;;;;;7.45;5.25;;;;;;;;;;4163460;34;20598;-67
2021/05/01 14:59:36;;;;;;;9.68;5.87;;;;;;;;;;4163351;34;20226;-67
2021/05/01 15:02:17;;;;;;;9.90;6.62;;;;;;;;;;4163173;34;20451;-67
2021/05/01 15:05:09;;;;;;;10.18;5.18;;;;;;;;;;4151001;34;20126;-67
2021/05/01 15:07:36;;;;;;;24.17;13.62;;;;;;;;;;4163479;34;20496;-67
2021/05/01 15:10:26;;;;;;;6.62;4.65;;;;;;;;;;4163301;34;20094;-66
2021/05/01 15:13:06;;;;;;;6.00;4.28;;;;;;;;;;4159529;34;20536;-66
2021/05/01 15:15:44;;;;;;;7.78;4.75;;;;;;;;;;4151151;34;20500;-67
2021/05/01 15:18:22;;;;;;;6.15;4.37;;;;;;;;;;4163368;34;20233;-67
2021/05/01 15:20:52;;;;;;;7.40;5.87;;;;;;;;;;4163723;34;20109;-67